If you wish to contribute or participate in the discussions about articles you are invited to join SKYbrary as a registered user

 Actions

Agen-La Garenne Airport

From SKYbrary Wiki

LFBA
Airport
ICAO: LFBA – IATA: AGF
Summary
Name Agen-La Garenne Airport
Region Europe
Territory France FR.gif
Location Agen, Aquitaine
Serving Agen
Elevation 62.179 m
204 ft
204 ft62.179 m
Type medium airport
Coordinates 44° 10' 28.9956", 0° 35' 26.0016"
Runways
Designator Length Width Surface ROPS
11/29 2165 m7,103.018 ft 30 m98.425 ft ASP /
METAR
Observation LFBA 131830Z AUTO 24011KT 190V270 9999 BKN043 OVC050 12/07 Q1014 TEMPO 4000 -RA BECMG 10008KT
Station Agen
Date/Time 13 December 2017 18:30:00
Wind direction 240°
Wind speed 11 kts
Lowest cloud amount broken clouds
Temperature 12°C
Dew point 7°C
Humidity 71%
QNH 1014 hPa
Weather condition n/a

Maps

Terrain

Loading map...

Airport Layout

Loading map...


Accidents & Serious Incidents at or in vicinity of LFBA

None on SKYbrary